createdAt,value
2022-12-03T00:01:40.612Z,99190.94
2022-12-03T00:04:27.347Z,99180.84
2022-12-03T00:07:13.741Z,99189.56
2022-12-03T00:10:00.167Z,99203.75
2022-12-03T00:12:47.283Z,99168.06
2022-12-03T00:15:33.807Z,99192.16
2022-12-03T00:18:20.290Z,99181.78
2022-12-03T00:21:06.910Z,99172.69
2022-12-03T00:23:53.435Z,99190.06
2022-12-03T00:26:39.948Z,99190.84
2022-12-03T00:29:27.214Z,99171.75
2022-12-03T00:32:14.150Z,99174.22
2022-12-03T00:35:00.894Z,99195.94
2022-12-03T00:37:47.558Z,99177.13
2022-12-03T00:40:34.955Z,99189.00
2022-12-03T00:43:21.322Z,99193.13
2022-12-03T00:46:07.786Z,99186.56
2022-12-03T00:48:54.511Z,99175.38
2022-12-03T00:51:41.185Z,99195.47
2022-12-03T00:54:31.832Z,99195.38
2022-12-03T00:57:18.793Z,99204.31
2022-12-03T01:00:06.173Z,99197.50
2022-12-03T01:02:52.875Z,99174.69
2022-12-03T01:05:39.531Z,99191.47
2022-12-03T01:08:25.858Z,99197.88
2022-12-03T01:11:30.814Z,99196.09
2022-12-03T01:14:19.590Z,99195.97
2022-12-03T01:17:06.814Z,99197.94
2022-12-03T01:19:53.343Z,99180.06
2022-12-03T01:22:39.695Z,99190.28
2022-12-03T01:25:26.294Z,99200.72
2022-12-03T01:28:12.701Z,99177.50
2022-12-03T01:31:17.741Z,99046.44
2022-12-03T01:34:04.827Z,99200.97
2022-12-03T01:36:53.742Z,99206.44
2022-12-03T01:39:40.475Z,99205.56
2022-12-03T01:42:31.497Z,99194.53
2022-12-03T01:45:23.672Z,99206.66
2022-12-03T01:48:16.676Z,99206.16
2022-12-03T01:51:03.522Z,99208.94
2022-12-03T01:53:50.244Z,99204.97
2022-12-03T01:56:36.868Z,99205.72
2022-12-03T01:59:36.250Z,99216.03
2022-12-03T02:02:32.614Z,99211.06
2022-12-03T02:05:26.293Z,99216.66
2022-12-03T02:08:32.394Z,99189.25
2022-12-03T02:11:41.095Z,99208.47
2022-12-03T02:14:28.279Z,99215.47
2022-12-03T02:17:15.017Z,99209.31
2022-12-03T02:20:04.640Z,99211.44
2022-12-03T02:22:51.415Z,99211.94
2022-12-03T02:25:38.337Z,99196.81
2022-12-03T02:28:25.123Z,99204.22
2022-12-03T02:31:11.977Z,99209.91
2022-12-03T02:33:58.655Z,99195.09
2022-12-03T02:36:45.031Z,99211.50
2022-12-03T02:39:33.643Z,99209.69
2022-12-03T02:42:36.038Z,99189.28
2022-12-03T02:45:29.184Z,99206.03
2022-12-03T02:48:37.266Z,99201.91
2022-12-03T02:51:23.978Z,99202.66
2022-12-03T02:54:10.341Z,99193.69
2022-12-03T02:56:56.739Z,99200.22
2022-12-03T02:59:45.197Z,99195.03
2022-12-03T03:02:32.339Z,99175.50
2022-12-03T03:05:21.849Z,99207.63
2022-12-03T03:08:09.542Z,99203.47
2022-12-03T03:10:57.083Z,99192.16
2022-12-03T03:13:43.790Z,99111.56
2022-12-03T03:16:30.501Z,99202.53
2022-12-03T03:19:17.797Z,99210.09
2022-12-03T03:22:04.465Z,99185.03
2022-12-03T03:24:51.057Z,99212.25
2022-12-03T03:27:38.804Z,99207.72
2022-12-03T03:30:25.098Z,99206.16
2022-12-03T03:33:13.294Z,99202.97
2022-12-03T03:36:00.941Z,99200.34
2022-12-03T03:38:47.829Z,99197.53
2022-12-03T03:41:35.296Z,99200.59
2022-12-03T03:44:22.164Z,99208.41
2022-12-03T03:47:08.918Z,99200.69
2022-12-03T03:49:55.781Z,99198.66
2022-12-03T03:52:43.119Z,99189.28
2022-12-03T03:55:31.076Z,99196.94
2022-12-03T03:58:17.703Z,99200.94
2022-12-03T04:01:04.339Z,99176.72
2022-12-03T04:03:53.589Z,99201.03
2022-12-03T04:06:40.030Z,99188.94
2022-12-03T04:09:26.415Z,99191.25
2022-12-03T04:12:32.004Z,99183.03
2022-12-03T04:15:20.083Z,99178.22
2022-12-03T04:18:25.284Z,99185.84
2022-12-03T04:21:33.563Z,99176.53
2022-12-03T04:24:20.122Z,99191.00
2022-12-03T04:27:25.240Z,99186.22
2022-12-03T04:30:12.036Z,99179.66
2022-12-03T04:33:16.884Z,99184.66
2022-12-03T04:36:03.377Z,99179.06
2022-12-03T04:38:49.684Z,99187.31
2022-12-03T04:41:36.277Z,99178.59
2022-12-03T04:44:37.609Z,99183.34
2022-12-03T04:47:24.408Z,99156.31
2022-12-03T04:50:11.257Z,99165.72
2022-12-03T04:52:57.717Z,99181.41
2022-12-03T04:55:44.180Z,99186.81
2022-12-03T04:58:30.761Z,99183.34
2022-12-03T05:01:17.110Z,99161.94
2022-12-03T05:04:04.107Z,99189.72
2022-12-03T05:06:50.795Z,99182.72
2022-12-03T05:09:37.448Z,99167.41
2022-12-03T05:12:23.748Z,99178.91
2022-12-03T05:15:10.354Z,99171.00
2022-12-03T05:17:57.041Z,99162.88
2022-12-03T05:20:49.658Z,99161.03
2022-12-03T05:23:39.258Z,99168.19
2022-12-03T05:26:25.855Z,99169.47
2022-12-03T05:29:12.383Z,99169.53
2022-12-03T05:31:59.188Z,99165.69
2022-12-03T05:34:45.547Z,99163.94
2022-12-03T05:37:31.825Z,99152.75
2022-12-03T05:40:18.559Z,99141.72
2022-12-03T05:43:05.315Z,99150.75
2022-12-03T05:45:51.744Z,99147.19
2022-12-03T05:48:38.417Z,99116.72
2022-12-03T05:51:24.769Z,99143.56
2022-12-03T05:54:11.094Z,99138.44
2022-12-03T05:56:57.287Z,99138.47
2022-12-03T05:59:43.691Z,99125.19
2022-12-03T06:02:30.093Z,99152.66
2022-12-03T06:05:20.139Z,99153.91
2022-12-03T06:08:06.966Z,99152.53
2022-12-03T06:10:53.646Z,99155.69
2022-12-03T06:13:40.328Z,99143.44
2022-12-03T06:16:27.021Z,99160.19
2022-12-03T06:19:13.702Z,99145.19
2022-12-03T06:22:00.011Z,99163.13
2022-12-03T06:24:46.697Z,99168.97
2022-12-03T06:27:33.179Z,99158.38
2022-12-03T06:30:19.633Z,99161.66
2022-12-03T06:33:06.337Z,99166.19
2022-12-03T06:35:52.691Z,99174.44
2022-12-03T06:38:38.975Z,99180.50
2022-12-03T06:41:25.763Z,99181.22
2022-12-03T06:44:12.305Z,99189.03
2022-12-03T06:46:58.868Z,99175.66
2022-12-03T06:49:45.478Z,99182.69
2022-12-03T06:52:31.740Z,99190.03
2022-12-03T06:55:20.351Z,99185.69
2022-12-03T06:58:07.158Z,99190.03
2022-12-03T07:00:54.341Z,99185.03
2022-12-03T07:03:40.622Z,99189.81
2022-12-03T07:06:27.374Z,99184.53
2022-12-03T07:09:16.283Z,99190.78
2022-12-03T07:12:02.861Z,99190.22
2022-12-03T07:14:49.297Z,99188.16
2022-12-03T07:17:35.746Z,99160.06
2022-12-03T07:20:22.005Z,99183.66
2022-12-03T07:23:15.341Z,99168.94
2022-12-03T07:26:01.836Z,99160.53
2022-12-03T07:28:48.336Z,99157.19
2022-12-03T07:31:35.184Z,99153.78
2022-12-03T07:34:21.951Z,99162.50
2022-12-03T07:37:08.357Z,99169.34
2022-12-03T07:39:54.649Z,99146.00
2022-12-03T07:42:40.978Z,99165.06
2022-12-03T07:45:27.766Z,99145.88
2022-12-03T07:48:14.348Z,99166.16
2022-12-03T07:51:00.723Z,99159.81
2022-12-03T07:53:47.194Z,99172.84
2022-12-03T07:56:33.814Z,99161.88
2022-12-03T07:59:21.225Z,99166.91
2022-12-03T08:02:09.217Z,99176.81
2022-12-03T08:04:56.133Z,99112.56
2022-12-03T08:07:43.023Z,99173.44
2022-12-03T08:10:32.595Z,99061.66
2022-12-03T08:13:19.292Z,99157.09
2022-12-03T08:16:15.829Z,99175.28
2022-12-03T08:19:02.464Z,99171.50
2022-12-03T08:21:53.129Z,99158.03
2022-12-03T08:24:43.704Z,99176.00
2022-12-03T08:27:30.754Z,99172.47
2022-12-03T08:30:18.188Z,99190.28
2022-12-03T08:33:23.742Z,99156.41
2022-12-03T08:36:18.788Z,99170.38
2022-12-03T08:39:30.274Z,99176.81
2022-12-03T08:42:36.647Z,99173.63
2022-12-03T08:45:29.147Z,99178.84
2022-12-03T08:48:34.950Z,99173.00
2022-12-03T08:51:25.356Z,99158.63
2022-12-03T08:54:19.339Z,99163.50
2022-12-03T08:57:27.799Z,99165.28
2022-12-03T09:00:23.781Z,99146.31
2022-12-03T09:03:15.993Z,99159.19
2022-12-03T09:06:02.704Z,99164.72
2022-12-03T09:08:50.168Z,99152.44
2022-12-03T09:11:36.975Z,99157.38
2022-12-03T09:14:23.811Z,99162.84
2022-12-03T09:17:10.410Z,99155.03
2022-12-03T09:19:57.087Z,99152.94
2022-12-03T09:22:43.529Z,99159.44
2022-12-03T09:25:29.779Z,99137.69
2022-12-03T09:28:15.984Z,99156.03
2022-12-03T09:31:02.290Z,99165.06
2022-12-03T09:33:48.856Z,99164.16
2022-12-03T09:36:35.578Z,99163.09
2022-12-03T09:39:22.403Z,99162.03
2022-12-03T09:42:09.784Z,99164.06
2022-12-03T09:44:56.457Z,99134.75
2022-12-03T09:47:48.956Z,99156.19
2022-12-03T09:50:40.731Z,99134.00
2022-12-03T09:53:27.494Z,99159.19
2022-12-03T09:56:20.398Z,99128.69
2022-12-03T09:59:13.910Z,99119.94
2022-12-03T10:02:01.735Z,99132.75
2022-12-03T10:04:49.153Z,99137.63
2022-12-03T10:07:35.942Z,99127.59
2022-12-03T10:10:25.202Z,99112.97
2022-12-03T10:13:25.461Z,99127.97
2022-12-03T10:16:16.059Z,99116.06
2022-12-03T10:19:02.842Z,99128.06
2022-12-03T10:21:50.788Z,99116.72
2022-12-03T10:24:38.136Z,99122.88
2022-12-03T10:27:30.322Z,99110.19
2022-12-03T10:30:20.344Z,99117.88
2022-12-03T10:33:18.901Z,99107.22
2022-12-03T10:36:26.564Z,99112.16
2022-12-03T10:39:16.295Z,99120.97
2022-12-03T10:42:16.148Z,99117.03
2022-12-03T10:45:16.319Z,99115.59
2022-12-03T10:48:11.052Z,99116.81
2022-12-03T10:51:07.143Z,99113.59
2022-12-03T10:53:54.403Z,99115.38
2022-12-03T10:56:40.933Z,99103.41
2022-12-03T10:59:32.881Z,99108.66
2022-12-03T11:02:22.711Z,99102.56
2022-12-03T11:05:15.798Z,99083.06
2022-12-03T11:08:03.984Z,99100.47
2022-12-03T11:11:05.861Z,99083.72
2022-12-03T11:13:57.526Z,99077.50
2022-12-03T11:16:47.151Z,99091.88
2022-12-03T11:19:36.396Z,99082.63
2022-12-03T11:22:27.110Z,99013.03
2022-12-03T11:25:28.401Z,99068.59
2022-12-03T11:28:14.740Z,99064.53
2022-12-03T11:31:09.179Z,99070.41
2022-12-03T11:34:18.277Z,99060.53
2022-12-03T11:37:10.972Z,99058.03
2022-12-03T11:40:00.618Z,99060.41
2022-12-03T11:42:48.869Z,99053.81
2022-12-03T11:45:38.161Z,99064.09
2022-12-03T11:48:24.761Z,99055.19
2022-12-03T11:51:20.476Z,99057.09
2022-12-03T11:54:18.881Z,99059.03
2022-12-03T11:57:26.309Z,99031.19
2022-12-03T12:00:19.761Z,99057.19
2022-12-03T12:03:23.727Z,99055.94
2022-12-03T12:06:11.930Z,99050.72
2022-12-03T12:08:59.747Z,99042.47
2022-12-03T12:11:46.191Z,99024.22
2022-12-03T12:14:32.478Z,99037.19
2022-12-03T12:17:36.589Z,99029.50
2022-12-03T12:20:27.923Z,99033.84
2022-12-03T12:23:28.071Z,99014.91
2022-12-03T12:26:14.877Z,98999.72
2022-12-03T12:29:01.557Z,99021.00
2022-12-03T12:31:54.134Z,99012.63
2022-12-03T12:34:50.426Z,99028.09
2022-12-03T12:37:47.727Z,99028.00
2022-12-03T12:40:38.324Z,99015.19
2022-12-03T12:43:31.686Z,99010.75
2022-12-03T12:46:46.690Z,99014.31
2022-12-03T12:49:26.934Z,99008.78
2022-12-03T12:52:14.955Z,99012.97
2022-12-03T12:55:04.883Z,99015.28
2022-12-03T12:57:51.974Z,99006.09
2022-12-03T13:00:38.721Z,99014.66
2022-12-03T13:03:28.665Z,99011.66
2022-12-03T13:06:16.747Z,98996.09
2022-12-03T13:09:03.070Z,98999.66
2022-12-03T13:12:00.760Z,99001.19
2022-12-03T13:14:47.707Z,98985.00
2022-12-03T13:17:34.439Z,98993.22
2022-12-03T13:20:21.032Z,98991.59
2022-12-03T13:23:22.450Z,98990.06
2022-12-03T13:26:39.092Z,98985.13
2022-12-03T13:29:27.453Z,98982.31
2022-12-03T13:32:16.676Z,98918.16
2022-12-03T13:35:11.833Z,98987.31
2022-12-03T13:37:59.122Z,98984.75
2022-12-03T13:40:46.127Z,98955.31
2022-12-03T13:43:39.904Z,98954.31
2022-12-03T13:46:34.581Z,98982.22
2022-12-03T13:49:23.931Z,98979.44
2022-12-03T13:52:16.207Z,98980.63
2022-12-03T13:55:03.868Z,98977.00
2022-12-03T13:57:50.317Z,98969.91
2022-12-03T14:00:37.583Z,98990.66
2022-12-03T14:03:24.294Z,98988.75
2022-12-03T14:06:10.664Z,98985.34
2022-12-03T14:08:57.319Z,98967.75
2022-12-03T14:12:02.213Z,98973.91
2022-12-03T14:14:48.875Z,98981.75
2022-12-03T14:17:35.437Z,98963.47
2022-12-03T14:20:22.123Z,98982.31
2022-12-03T14:23:08.559Z,98983.31
2022-12-03T14:25:55.261Z,98984.56
2022-12-03T14:28:41.974Z,98977.13
2022-12-03T14:31:28.768Z,98985.69
2022-12-03T14:34:15.474Z,98989.66
2022-12-03T14:37:04.907Z,98993.75
2022-12-03T14:39:51.276Z,98981.59
2022-12-03T14:42:37.988Z,98991.06
2022-12-03T14:45:26.112Z,98997.81
2022-12-03T14:48:12.584Z,99000.81
2022-12-03T14:50:59.787Z,99001.41
2022-12-03T14:53:46.259Z,99003.00
2022-12-03T14:56:32.520Z,99002.34
2022-12-03T14:59:24.411Z,98978.16
2022-12-03T15:02:16.783Z,99009.34
2022-12-03T15:05:03.825Z,98999.94
2022-12-03T15:07:50.508Z,99003.03
2022-12-03T15:10:37.125Z,98995.56
2022-12-03T15:13:23.817Z,98991.88
2022-12-03T15:16:10.139Z,98997.88
2022-12-03T15:18:56.968Z,98991.84
2022-12-03T15:21:43.658Z,99000.44
2022-12-03T15:24:31.304Z,99002.06
2022-12-03T15:27:18.179Z,99002.81
2022-12-03T15:30:06.089Z,99000.22
2022-12-03T15:32:52.600Z,98995.13
2022-12-03T15:35:39.338Z,98996.41
2022-12-03T15:38:26.797Z,98997.13
2022-12-03T15:41:24.543Z,99002.34
2022-12-03T15:44:10.790Z,98993.81
2022-12-03T15:46:57.101Z,98997.25
2022-12-03T15:49:43.409Z,98991.75
2022-12-03T15:52:29.913Z,98990.47
2022-12-03T15:55:21.715Z,98974.25
2022-12-03T15:58:08.439Z,98986.88
2022-12-03T16:00:55.063Z,98989.19
2022-12-03T16:03:41.887Z,98971.78
2022-12-03T16:06:28.300Z,98991.78
2022-12-03T16:09:14.871Z,98973.50
2022-12-03T16:12:01.286Z,98967.41
2022-12-03T16:14:47.905Z,98994.22
2022-12-03T16:17:34.322Z,98993.53
2022-12-03T16:20:20.580Z,98983.94
2022-12-03T16:23:07.197Z,98990.38
2022-12-03T16:25:53.854Z,98994.53
2022-12-03T16:28:40.159Z,98999.75
2022-12-03T16:31:26.951Z,98991.56
2022-12-03T16:34:13.392Z,98993.09
2022-12-03T16:36:59.990Z,98965.59
2022-12-03T16:39:46.625Z,98979.09
2022-12-03T16:42:33.498Z,98972.50
2022-12-03T16:45:51.626Z,98986.88
2022-12-03T16:48:38.313Z,98983.69
2022-12-03T16:51:30.303Z,98991.81
2022-12-03T16:54:17.037Z,98964.19
2022-12-03T16:57:04.334Z,98975.34
2022-12-03T16:59:51.179Z,98982.00
2022-12-03T17:02:38.920Z,98976.41
2022-12-03T17:05:27.629Z,98973.97
2022-12-03T17:08:16.367Z,98972.69
2022-12-03T17:11:04.194Z,98972.34
2022-12-03T17:13:50.568Z,98972.09
2022-12-03T17:16:37.249Z,98950.59
2022-12-03T17:19:24.649Z,98974.75
2022-12-03T17:22:11.229Z,98969.19
2022-12-03T17:24:57.607Z,98963.41
2022-12-03T17:27:45.486Z,98947.22
2022-12-03T17:30:32.348Z,98963.44
2022-12-03T17:33:18.932Z,98958.06
2022-12-03T17:36:06.129Z,98956.66
2022-12-03T17:38:52.471Z,98939.06
2022-12-03T17:41:38.867Z,98944.38
2022-12-03T17:44:25.472Z,98949.13
2022-12-03T17:47:13.799Z,98952.91
2022-12-03T17:50:00.379Z,98951.28
2022-12-03T17:52:46.702Z,98950.41
2022-12-03T17:55:38.532Z,98956.38
2022-12-03T17:58:29.771Z,98961.31
2022-12-03T18:01:16.109Z,98968.06
2022-12-03T18:04:02.990Z,98961.72
2022-12-03T18:06:49.601Z,98962.34
2022-12-03T18:09:36.222Z,98964.06
2022-12-03T18:12:22.674Z,98962.34
2022-12-03T18:15:10.450Z,98966.69
2022-12-03T18:17:56.991Z,98958.25
2022-12-03T18:20:43.629Z,98929.44
2022-12-03T18:23:30.809Z,98955.41
2022-12-03T18:26:17.098Z,98944.34
2022-12-03T18:29:03.797Z,98945.22
2022-12-03T18:31:50.231Z,98946.94
2022-12-03T18:34:36.804Z,98941.34
2022-12-03T18:37:27.254Z,98937.09
2022-12-03T18:40:27.244Z,98942.81
2022-12-03T18:43:15.807Z,98944.03
2022-12-03T18:46:04.378Z,98938.84
2022-12-03T18:48:51.070Z,98948.81
2022-12-03T18:51:37.772Z,98954.84
2022-12-03T18:54:24.379Z,98952.78
2022-12-03T18:57:11.016Z,98944.44
2022-12-03T18:59:58.320Z,98951.22
2022-12-03T19:03:02.578Z,98947.91
2022-12-03T19:05:50.231Z,98943.59
2022-12-03T19:08:36.946Z,98915.25
2022-12-03T19:11:23.839Z,98927.09
2022-12-03T19:14:11.060Z,98930.06
2022-12-03T19:16:57.456Z,98929.44
2022-12-03T19:19:44.159Z,98904.38
2022-12-03T19:22:30.501Z,98931.06
2022-12-03T19:25:18.984Z,98909.66
2022-12-03T19:28:07.250Z,98933.81
2022-12-03T19:31:02.469Z,98929.81
2022-12-03T19:33:49.284Z,98926.06
2022-12-03T19:36:35.741Z,98904.63
2022-12-03T19:39:22.596Z,98931.31
2022-12-03T19:42:10.049Z,98929.91
2022-12-03T19:44:56.482Z,98916.59
2022-12-03T19:47:42.966Z,98927.97
2022-12-03T19:50:30.720Z,98927.19
2022-12-03T19:53:17.773Z,98928.09
2022-12-03T19:56:06.285Z,98931.63
2022-12-03T19:58:55.396Z,98934.91
2022-12-03T20:01:43.438Z,98926.44
2022-12-03T20:04:30.318Z,98932.16
2022-12-03T20:07:18.077Z,98929.91
2022-12-03T20:10:05.856Z,98924.81
2022-12-03T20:12:52.479Z,98920.59
2022-12-03T20:15:38.909Z,98926.22
2022-12-03T20:18:27.636Z,98906.47
2022-12-03T20:21:16.284Z,98919.13
2022-12-03T20:24:03.726Z,98927.06
2022-12-03T20:26:50.200Z,98925.19
2022-12-03T20:29:36.655Z,98921.06
2022-12-03T20:32:23.081Z,98835.31
2022-12-03T20:35:09.963Z,98921.72
2022-12-03T20:37:56.377Z,98923.16
2022-12-03T20:40:42.941Z,98924.50
2022-12-03T20:43:29.806Z,98928.03
2022-12-03T20:46:28.846Z,98921.97
2022-12-03T20:49:15.623Z,98927.28
2022-12-03T20:52:04.579Z,98907.91
2022-12-03T20:54:51.616Z,98918.63
2022-12-03T20:57:38.350Z,98904.31
2022-12-03T21:00:25.204Z,98905.66
2022-12-03T21:03:11.586Z,98901.78
2022-12-03T21:06:01.375Z,98894.47
2022-12-03T21:08:47.810Z,98913.59
2022-12-03T21:11:36.193Z,98899.25
2022-12-03T21:14:23.096Z,98893.31
2022-12-03T21:17:10.237Z,98884.34
2022-12-03T21:19:57.333Z,98891.28
2022-12-03T21:22:44.180Z,98899.97
2022-12-03T21:25:31.167Z,98897.19
2022-12-03T21:28:17.815Z,98904.97
2022-12-03T21:31:07.357Z,98901.41
2022-12-03T21:33:55.553Z,98909.72
2022-12-03T21:36:42.341Z,98903.97
2022-12-03T21:39:29.108Z,98895.94
2022-12-03T21:42:34.530Z,98888.06
2022-12-03T21:45:25.094Z,98899.72
2022-12-03T21:48:12.333Z,98894.75
2022-12-03T21:51:06.934Z,98888.66
2022-12-03T21:53:53.527Z,98897.34
2022-12-03T21:56:39.879Z,98884.56
2022-12-03T21:59:26.623Z,98884.56
2022-12-03T22:02:13.497Z,98882.94
2022-12-03T22:05:00.255Z,98888.78
2022-12-03T22:07:47.767Z,98878.63
2022-12-03T22:10:35.831Z,98872.81
2022-12-03T22:13:22.044Z,98865.09
2022-12-03T22:16:12.094Z,98881.84
2022-12-03T22:18:58.927Z,98886.81
2022-12-03T22:21:46.495Z,98877.53
2022-12-03T22:24:32.844Z,98864.50
2022-12-03T22:27:19.216Z,98875.31
2022-12-03T22:30:06.982Z,98870.56
2022-12-03T22:32:53.288Z,98869.56
2022-12-03T22:35:39.977Z,98867.91
2022-12-03T22:38:26.801Z,98864.47
2022-12-03T22:41:14.561Z,98862.50
2022-12-03T22:44:01.198Z,98845.78
2022-12-03T22:46:48.098Z,98851.38
2022-12-03T22:49:35.005Z,98851.88
2022-12-03T22:52:21.600Z,98857.72
2022-12-03T22:55:09.131Z,98848.09
2022-12-03T22:57:56.009Z,98865.72
2022-12-03T23:00:42.291Z,98854.81
2022-12-03T23:03:28.719Z,98841.25
2022-12-03T23:06:15.813Z,98838.00
2022-12-03T23:09:04.030Z,98831.22
2022-12-03T23:11:50.926Z,98825.56
2022-12-03T23:14:37.530Z,98827.56
2022-12-03T23:17:23.629Z,98809.44
2022-12-03T23:20:10.769Z,98833.31
2022-12-03T23:22:57.633Z,98818.00
2022-12-03T23:25:44.194Z,98841.91
2022-12-03T23:28:32.785Z,98827.09
2022-12-03T23:31:28.796Z,98835.94
2022-12-03T23:34:15.390Z,98846.97
2022-12-03T23:37:03.380Z,98840.84
2022-12-03T23:39:49.831Z,98835.00
2022-12-03T23:42:36.536Z,98846.75
2022-12-03T23:45:23.650Z,98842.69
2022-12-03T23:48:10.099Z,98851.16
2022-12-03T23:50:56.326Z,98845.56
2022-12-03T23:53:43.139Z,98823.78
2022-12-03T23:56:30.900Z,98838.38
2022-12-03T23:59:17.760Z,98829.94
